sensor_id;sensor_type;location;lat;lon;timestamp;pressure;altitude;pressure_sealevel;temperature;humidity
31082;BME280;17737;52.586;13.284;2023-12-07T00:02:04;101213.00;;;5.95;100.00
31082;BME280;17737;52.586;13.284;2023-12-07T00:04:32;101212.53;;;5.90;100.00
31082;BME280;17737;52.586;13.284;2023-12-07T00:07:01;101216.75;;;5.92;100.00
31082;BME280;17737;52.586;13.284;2023-12-07T00:09:29;101204.53;;;6.11;100.00
31082;BME280;17737;52.586;13.284;2023-12-07T00:11:59;101203.88;;;6.18;100.00
31082;BME280;17737;52.586;13.284;2023-12-07T00:14:27;101200.00;;;6.43;100.00
31082;BME280;17737;52.586;13.284;2023-12-07T00:16:55;101202.72;;;6.32;100.00
31082;BME280;17737;52.586;13.284;2023-12-07T00:19:24;101201.75;;;6.33;100.00
31082;BME280;17737;52.586;13.284;2023-12-07T00:21:52;101205.59;;;6.40;100.00
31082;BME280;17737;52.586;13.284;2023-12-07T00:24:20;101206.31;;;6.21;100.00
31082;BME280;17737;52.586;13.284;2023-12-07T00:26:48;101220.97;;;5.63;100.00
31082;BME280;17737;52.586;13.284;2023-12-07T00:29:18;101216.56;;;5.73;100.00
31082;BME280;17737;52.586;13.284;2023-12-07T00:31:46;101212.53;;;5.90;100.00
31082;BME280;17737;52.586;13.284;2023-12-07T00:34:15;101210.50;;;6.14;100.00
31082;BME280;17737;52.586;13.284;2023-12-07T00:36:43;101212.97;;;6.06;100.00
31082;BME280;17737;52.586;13.284;2023-12-07T00:39:12;101212.75;;;6.19;100.00
31082;BME280;17737;52.586;13.284;2023-12-07T00:41:40;101218.81;;;6.00;100.00
31082;BME280;17737;52.586;13.284;2023-12-07T00:44:08;101214.66;;;6.07;100.00
31082;BME280;17737;52.586;13.284;2023-12-07T00:46:40;101212.88;;;5.96;100.00
31082;BME280;17737;52.586;13.284;2023-12-07T00:49:08;101216.75;;;5.92;100.00
31082;BME280;17737;52.586;13.284;2023-12-07T00:51:36;101216.94;;;6.12;100.00
31082;BME280;17737;52.586;13.284;2023-12-07T00:54:04;101226.75;;;5.90;100.00
31082;BME280;17737;52.586;13.284;2023-12-07T00:56:33;101223.81;;;5.93;100.00
31082;BME280;17737;52.586;13.284;2023-12-07T00:59:02;101231.31;;;5.99;100.00
31082;BME280;17737;52.586;13.284;2023-12-07T01:01:30;101233.19;;;5.88;100.00
31082;BME280;17737;52.586;13.284;2023-12-07T01:04:00;101237.22;;;5.82;100.00
31082;BME280;17737;52.586;13.284;2023-12-07T01:06:28;101240.84;;;5.70;100.00
31082;BME280;17737;52.586;13.284;2023-12-07T01:08:56;101246.50;;;5.56;100.00
31082;BME280;17737;52.586;13.284;2023-12-07T01:11:25;101254.88;;;5.52;100.00
31082;BME280;17737;52.586;13.284;2023-12-07T01:13:53;101261.78;;;5.65;100.00
31082;BME280;17737;52.586;13.284;2023-12-07T01:16:21;101259.81;;;5.67;100.00
31082;BME280;17737;52.586;13.284;2023-12-07T01:18:51;101257.81;;;5.38;100.00
31082;BME280;17737;52.586;13.284;2023-12-07T01:21:21;101260.94;;;5.87;100.00
31082;BME280;17737;52.586;13.284;2023-12-07T01:23:50;101259.53;;;6.03;100.00
31082;BME280;17737;52.586;13.284;2023-12-07T01:26:32;101273.19;;;5.78;100.00
31082;BME280;17737;52.586;13.284;2023-12-07T01:29:00;101268.97;;;5.54;100.00
31082;BME280;17737;52.586;13.284;2023-12-07T01:31:29;101283.41;;;5.62;100.00
31082;BME280;17737;52.586;13.284;2023-12-07T01:33:59;101284.53;;;5.38;100.00
31082;BME280;17737;52.586;13.284;2023-12-07T01:36:28;101286.47;;;5.25;100.00
31082;BME280;17737;52.586;13.284;2023-12-07T01:38:57;101291.09;;;5.34;100.00
31082;BME280;17737;52.586;13.284;2023-12-07T01:41:26;101294.97;;;5.30;100.00
31082;BME280;17737;52.586;13.284;2023-12-07T01:43:55;101285.38;;;5.49;100.00
31082;BME280;17737;52.586;13.284;2023-12-07T01:46:23;101288.16;;;5.59;100.00
31082;BME280;17737;52.586;13.284;2023-12-07T01:48:52;101285.69;;;6.00;100.00
31082;BME280;17737;52.586;13.284;2023-12-07T01:51:20;101298.56;;;6.06;100.00
31082;BME280;17737;52.586;13.284;2023-12-07T01:53:50;101287.28;;;5.69;100.00
31082;BME280;17737;52.586;13.284;2023-12-07T01:56:19;101291.66;;;5.81;100.00
31082;BME280;17737;52.586;13.284;2023-12-07T01:58:47;101287.22;;;6.14;100.00
31082;BME280;17737;52.586;13.284;2023-12-07T02:01:17;101288.75;;;5.73;100.00
31082;BME280;17737;52.586;13.284;2023-12-07T02:03:46;101286.81;;;5.64;100.00
31082;BME280;17737;52.586;13.284;2023-12-07T02:06:15;101294.97;;;5.63;100.00
31082;BME280;17737;52.586;13.284;2023-12-07T02:08:43;101293.75;;;5.89;100.00
31082;BME280;17737;52.586;13.284;2023-12-07T02:11:13;101299.13;;;6.09;100.00
31082;BME280;17737;52.586;13.284;2023-12-07T02:13:42;101297.00;;;5.92;100.00
31082;BME280;17737;52.586;13.284;2023-12-07T02:16:15;101300.84;;;6.11;100.00
31082;BME280;17737;52.586;13.284;2023-12-07T02:18:51;101296.03;;;5.93;100.00
31082;BME280;17737;52.586;13.284;2023-12-07T02:21:27;101296.25;;;6.01;100.00
31082;BME280;17737;52.586;13.284;2023-12-07T02:24:00;101298.09;;;5.90;100.00
31082;BME280;17737;52.586;13.284;2023-12-07T02:26:34;101304.31;;;5.68;100.00
31082;BME280;17737;52.586;13.284;2023-12-07T02:29:03;101299.66;;;5.70;100.00
31082;BME280;17737;52.586;13.284;2023-12-07T02:31:32;101300.19;;;5.64;100.00
31082;BME280;17737;52.586;13.284;2023-12-07T02:34:00;101305.16;;;5.69;100.00
31082;BME280;17737;52.586;13.284;2023-12-07T02:36:29;101316.44;;;5.72;100.00
31082;BME280;17737;52.586;13.284;2023-12-07T02:39:03;101309.34;;;6.04;100.00
31082;BME280;17737;52.586;13.284;2023-12-07T02:41:35;101317.59;;;6.24;100.00
31082;BME280;17737;52.586;13.284;2023-12-07T02:44:04;101315.72;;;5.70;100.00
31082;BME280;17737;52.586;13.284;2023-12-07T02:46:33;101314.03;;;5.80;100.00
31082;BME280;17737;52.586;13.284;2023-12-07T02:49:02;101318.28;;;5.61;100.00
31082;BME280;17737;52.586;13.284;2023-12-07T02:51:30;101320.09;;;5.71;100.00
31082;BME280;17737;52.586;13.284;2023-12-07T02:53:59;101321.19;;;5.47;100.00
31082;BME280;17737;52.586;13.284;2023-12-07T02:56:27;101328.59;;;5.65;100.00
31082;BME280;17737;52.586;13.284;2023-12-07T02:58:57;101327.91;;;5.85;100.00
31082;BME280;17737;52.586;13.284;2023-12-07T03:01:25;101328.59;;;5.87;100.00
31082;BME280;17737;52.586;13.284;2023-12-07T03:03:53;101335.19;;;5.61;100.00
31082;BME280;17737;52.586;13.284;2023-12-07T03:06:21;101327.66;;;5.66;100.00
31082;BME280;17737;52.586;13.284;2023-12-07T03:08:50;101331.75;;;5.81;100.00
31082;BME280;17737;52.586;13.284;2023-12-07T03:11:18;101337.13;;;5.59;100.00
31082;BME280;17737;52.586;13.284;2023-12-07T03:13:46;101333.72;;;5.90;100.00
31082;BME280;17737;52.586;13.284;2023-12-07T03:16:16;101341.75;;;5.68;100.00
31082;BME280;17737;52.586;13.284;2023-12-07T03:18:44;101343.56;;;5.90;100.00
31082;BME280;17737;52.586;13.284;2023-12-07T03:21:12;101345.63;;;5.97;100.00
31082;BME280;17737;52.586;13.284;2023-12-07T03:23:40;101342.09;;;5.86;100.00
31082;BME280;17737;52.586;13.284;2023-12-07T03:26:09;101345.38;;;5.78;100.00
31082;BME280;17737;52.586;13.284;2023-12-07T03:28:37;101342.34;;;5.94;100.00
31082;BME280;17737;52.586;13.284;2023-12-07T03:31:05;101353.06;;;5.72;100.00
31082;BME280;17737;52.586;13.284;2023-12-07T03:33:35;101355.56;;;5.18;100.00
31082;BME280;17737;52.586;13.284;2023-12-07T03:36:05;101359.22;;;5.28;100.00
31082;BME280;17737;52.586;13.284;2023-12-07T03:38:34;101357.41;;;5.51;100.00
31082;BME280;17737;52.586;13.284;2023-12-07T03:41:02;101358.97;;;5.53;100.00
31082;BME280;17737;52.586;13.284;2023-12-07T03:43:30;101362.16;;;5.58;100.00
31082;BME280;17737;52.586;13.284;2023-12-07T03:45:58;101367.97;;;5.52;100.00
31082;BME280;17737;52.586;13.284;2023-12-07T03:48:27;101366.66;;;5.36;100.00
31082;BME280;17737;52.586;13.284;2023-12-07T03:50:56;101359.59;;;5.57;100.00
31082;BME280;17737;52.586;13.284;2023-12-07T03:53:24;101363.84;;;5.59;100.00
31082;BME280;17737;52.586;13.284;2023-12-07T03:55:52;101359.22;;;5.50;100.00
31082;BME280;17737;52.586;13.284;2023-12-07T03:58:21;101351.22;;;5.61;100.00
31082;BME280;17737;52.586;13.284;2023-12-07T04:00:49;101358.00;;;5.65;100.00
31082;BME280;17737;52.586;13.284;2023-12-07T04:03:17;101357.53;;;5.49;100.00
31082;BME280;17737;52.586;13.284;2023-12-07T04:05:46;101360.31;;;5.59;100.00
31082;BME280;17737;52.586;13.284;2023-12-07T04:08:15;101354.38;;;5.44;100.00
31082;BME280;17737;52.586;13.284;2023-12-07T04:10:44;101362.38;;;5.77;100.00
31082;BME280;17737;52.586;13.284;2023-12-07T04:13:12;101352.44;;;5.68;100.00
31082;BME280;17737;52.586;13.284;2023-12-07T04:15:41;101363.75;;;5.94;100.00
31082;BME280;17737;52.586;13.284;2023-12-07T04:18:09;101360.22;;;5.49;100.00
31082;BME280;17737;52.586;13.284;2023-12-07T04:20:37;101364.34;;;5.42;100.00
31082;BME280;17737;52.586;13.284;2023-12-07T04:23:05;101365.41;;;5.40;100.00
31082;BME280;17737;52.586;13.284;2023-12-07T04:25:35;101366.28;;;5.40;100.00
31082;BME280;17737;52.586;13.284;2023-12-07T04:28:03;101375.03;;;5.64;100.00
31082;BME280;17737;52.586;13.284;2023-12-07T04:30:31;101383.06;;;5.64;100.00
31082;BME280;17737;52.586;13.284;2023-12-07T04:33:00;101382.06;;;5.43;100.00
31082;BME280;17737;52.586;13.284;2023-12-07T04:35:28;101384.25;;;5.38;100.00
31082;BME280;17737;52.586;13.284;2023-12-07T04:37:57;101383.03;;;5.53;100.00
31082;BME280;17737;52.586;13.284;2023-12-07T04:40:25;101395.25;;;5.90;100.00
31082;BME280;17737;52.586;13.284;2023-12-07T04:42:55;101391.63;;;5.24;100.00
31082;BME280;17737;52.586;13.284;2023-12-07T04:45:23;101401.47;;;5.23;100.00
31082;BME280;17737;52.586;13.284;2023-12-07T04:47:51;101407.09;;;5.53;100.00
31082;BME280;17737;52.586;13.284;2023-12-07T04:50:20;101404.78;;;5.49;100.00
31082;BME280;17737;52.586;13.284;2023-12-07T04:52:48;101409.16;;;5.61;100.00
31082;BME280;17737;52.586;13.284;2023-12-07T04:55:17;101394.72;;;5.63;100.00
31082;BME280;17737;52.586;13.284;2023-12-07T04:57:45;101405.16;;;5.44;100.00
31082;BME280;17737;52.586;13.284;2023-12-07T05:00:18;101406.59;;;5.48;100.00
31082;BME280;17737;52.586;13.284;2023-12-07T05:02:47;101407.38;;;5.61;100.00
31082;BME280;17737;52.586;13.284;2023-12-07T05:05:16;101400.41;;;5.59;100.00
31082;BME280;17737;52.586;13.284;2023-12-07T05:07:44;101400.16;;;5.62;100.00
31082;BME280;17737;52.586;13.284;2023-12-07T05:10:14;101411.75;;;5.73;100.00
31082;BME280;17737;52.586;13.284;2023-12-07T05:12:42;101397.38;;;5.52;100.00
31082;BME280;17737;52.586;13.284;2023-12-07T05:15:10;101404.28;;;5.44;100.00
31082;BME280;17737;52.586;13.284;2023-12-07T05:17:40;101407.34;;;5.72;100.00
31082;BME280;17737;52.586;13.284;2023-12-07T05:20:08;101411.66;;;5.97;100.00
31082;BME280;17737;52.586;13.284;2023-12-07T05:22:39;101400.59;;;5.90;100.00
31082;BME280;17737;52.586;13.284;2023-12-07T05:25:07;101404.22;;;5.78;100.00
31082;BME280;17737;52.586;13.284;2023-12-07T05:27:36;101412.97;;;5.91;100.00
31082;BME280;17737;52.586;13.284;2023-12-07T05:30:05;101412.13;;;6.02;100.00
31082;BME280;17737;52.586;13.284;2023-12-07T05:32:34;101412.09;;;5.69;100.00
31082;BME280;17737;52.586;13.284;2023-12-07T05:35:04;101417.31;;;5.81;100.00
31082;BME280;17737;52.586;13.284;2023-12-07T05:37:33;101412.97;;;5.91;100.00
31082;BME280;17737;52.586;13.284;2023-12-07T05:40:02;101415.78;;;5.90;100.00
31082;BME280;17737;52.586;13.284;2023-12-07T05:42:32;101413.56;;;6.17;100.00
31082;BME280;17737;52.586;13.284;2023-12-07T05:45:01;101410.09;;;6.37;100.00
31082;BME280;17737;52.586;13.284;2023-12-07T05:47:29;101408.81;;;6.21;100.00
31082;BME280;17737;52.586;13.284;2023-12-07T05:49:57;101405.75;;;6.36;100.00
31082;BME280;17737;52.586;13.284;2023-12-07T05:52:28;101404.41;;;6.31;100.00
31082;BME280;17737;52.586;13.284;2023-12-07T05:54:56;101418.19;;;6.15;100.00
31082;BME280;17737;52.586;13.284;2023-12-07T05:57:24;101412.06;;;6.35;100.00
31082;BME280;17737;52.586;13.284;2023-12-07T05:59:52;101416.72;;;5.78;100.00
31082;BME280;17737;52.586;13.284;2023-12-07T06:02:20;101416.81;;;5.65;100.00
31082;BME280;17737;52.586;13.284;2023-12-07T06:04:49;101426.69;;;5.65;100.00
31082;BME280;17737;52.586;13.284;2023-12-07T06:07:17;101437.28;;;6.11;100.00
31082;BME280;17737;52.586;13.284;2023-12-07T06:09:47;101439.34;;;5.96;100.00
31082;BME280;17737;52.586;13.284;2023-12-07T06:12:15;101427.78;;;6.06;100.00
31082;BME280;17737;52.586;13.284;2023-12-07T06:14:43;101431.91;;;6.22;100.00
31082;BME280;17737;52.586;13.284;2023-12-07T06:17:12;101443.81;;;5.62;100.00
31082;BME280;17737;52.586;13.284;2023-12-07T06:19:44;101443.69;;;5.64;100.00
31082;BME280;17737;52.586;13.284;2023-12-07T06:22:12;101436.13;;;5.36;100.00
31082;BME280;17737;52.586;13.284;2023-12-07T06:24:41;101443.19;;;5.48;100.00
31082;BME280;17737;52.586;13.284;2023-12-07T06:27:11;101455.47;;;5.61;100.00
31082;BME280;17737;52.586;13.284;2023-12-07T06:29:39;101448.94;;;5.87;100.00
31082;BME280;17737;52.586;13.284;2023-12-07T06:32:07;101459.28;;;6.03;100.00
31082;BME280;17737;52.586;13.284;2023-12-07T06:34:39;101460.47;;;5.77;100.00
31082;BME280;17737;52.586;13.284;2023-12-07T06:37:09;101470.19;;;5.78;100.00
31082;BME280;17737;52.586;13.284;2023-12-07T06:39:38;101464.94;;;5.65;100.00
31082;BME280;17737;52.586;13.284;2023-12-07T06:45:23;101480.56;;;5.93;100.00
31082;BME280;17737;52.586;13.284;2023-12-07T06:47:51;101477.19;;;5.46;100.00
31082;BME280;17737;52.586;13.284;2023-12-07T06:50:19;101480.59;;;5.48;100.00
31082;BME280;17737;52.586;13.284;2023-12-07T06:52:48;101480.41;;;5.73;100.00
31082;BME280;17737;52.586;13.284;2023-12-07T06:55:16;101476.81;;;6.07;100.00
31082;BME280;17737;52.586;13.284;2023-12-07T06:57:44;101486.66;;;6.18;100.00
31082;BME280;17737;52.586;13.284;2023-12-07T07:00:13;101481.63;;;6.35;100.00
31082;BME280;17737;52.586;13.284;2023-12-07T07:02:43;101477.28;;;6.34;100.00
31082;BME280;17737;52.586;13.284;2023-12-07T07:05:10;101475.00;;;6.07;100.00
31082;BME280;17737;52.586;13.284;2023-12-07T07:07:39;101469.88;;;5.93;100.00
31082;BME280;17737;52.586;13.284;2023-12-07T07:10:08;101485.22;;;6.02;100.00
31082;BME280;17737;52.586;13.284;2023-12-07T07:12:39;101488.09;;;5.88;100.00
31082;BME280;17737;52.586;13.284;2023-12-07T07:15:08;101484.94;;;6.17;100.00
31082;BME280;17737;52.586;13.284;2023-12-07T07:17:37;101489.34;;;5.95;100.00
31082;BME280;17737;52.586;13.284;2023-12-07T07:20:08;101490.28;;;5.94;100.00
31082;BME280;17737;52.586;13.284;2023-12-07T07:22:36;101487.25;;;6.10;100.00
31082;BME280;17737;52.586;13.284;2023-12-07T07:25:05;101501.00;;;6.17;100.00
31082;BME280;17737;52.586;13.284;2023-12-07T07:27:34;101495.69;;;5.71;100.00
31082;BME280;17737;52.586;13.284;2023-12-07T07:30:02;101478.72;;;5.72;100.00
31082;BME280;17737;52.586;13.284;2023-12-07T07:32:31;101484.53;;;5.77;100.00
31082;BME280;17737;52.586;13.284;2023-12-07T07:35:00;101481.28;;;6.06;100.00
31082;BME280;17737;52.586;13.284;2023-12-07T07:37:29;101483.97;;;6.18;100.00
31082;BME280;17737;52.586;13.284;2023-12-07T07:39:58;101499.41;;;6.03;100.00
31082;BME280;17737;52.586;13.284;2023-12-07T07:42:27;101497.06;;;5.76;100.00
31082;BME280;17737;52.586;13.284;2023-12-07T07:44:55;101502.22;;;5.90;100.00
31082;BME280;17737;52.586;13.284;2023-12-07T07:47:23;101496.88;;;5.90;100.00
31082;BME280;17737;52.586;13.284;2023-12-07T07:49:52;101493.94;;;5.93;100.00
31082;BME280;17737;52.586;13.284;2023-12-07T07:52:20;101502.84;;;5.94;100.00
31082;BME280;17737;52.586;13.284;2023-12-07T07:54:50;101501.72;;;5.96;100.00
31082;BME280;17737;52.586;13.284;2023-12-07T07:57:18;101495.88;;;6.36;100.00
31082;BME280;17737;52.586;13.284;2023-12-07T07:59:47;101491.88;;;6.41;100.00
31082;BME280;17737;52.586;13.284;2023-12-07T08:02:15;101480.22;;;6.09;100.00
31082;BME280;17737;52.586;13.284;2023-12-07T08:04:43;101497.81;;;6.34;100.00
31082;BME280;17737;52.586;13.284;2023-12-07T08:07:12;101496.50;;;6.28;100.00
31082;BME280;17737;52.586;13.284;2023-12-07T08:09:40;101497.69;;;5.91;100.00
31082;BME280;17737;52.586;13.284;2023-12-07T08:12:11;101506.72;;;5.90;100.00
31082;BME280;17737;52.586;13.284;2023-12-07T08:14:39;101508.03;;;5.84;100.00
31082;BME280;17737;52.586;13.284;2023-12-07T08:17:11;101515.97;;;5.97;100.00
31082;BME280;17737;52.586;13.284;2023-12-07T08:19:41;101516.34;;;6.15;100.00
31082;BME280;17737;52.586;13.284;2023-12-07T08:22:10;101526.44;;;6.11;100.00
31082;BME280;17737;52.586;13.284;2023-12-07T08:24:38;101519.94;;;5.91;100.00
31082;BME280;17737;52.586;13.284;2023-12-07T08:27:07;101530.91;;;5.88;100.00
31082;BME280;17737;52.586;13.284;2023-12-07T08:29:37;101518.16;;;6.14;100.00
31082;BME280;17737;52.586;13.284;2023-12-07T08:32:05;101532.84;;;6.08;100.00
31082;BME280;17737;52.586;13.284;2023-12-07T08:34:34;101520.66;;;5.82;100.00
31082;BME280;17737;52.586;13.284;2023-12-07T08:37:04;101516.19;;;6.27;100.00
31082;BME280;17737;52.586;13.284;2023-12-07T08:39:32;101531.53;;;6.25;100.00
31082;BME280;17737;52.586;13.284;2023-12-07T08:42:01;101534.53;;;6.09;100.00
31082;BME280;17737;52.586;13.284;2023-12-07T08:44:29;101535.63;;;5.50;100.00
31082;BME280;17737;52.586;13.284;2023-12-07T08:47:00;101528.97;;;5.90;100.00
31082;BME280;17737;52.586;13.284;2023-12-07T08:49:29;101539.78;;;5.89;100.00
31082;BME280;17737;52.586;13.284;2023-12-07T08:51:58;101524.34;;;6.03;100.00
31082;BME280;17737;52.586;13.284;2023-12-07T08:54:46;101537.44;;;5.84;100.00
31082;BME280;17737;52.586;13.284;2023-12-07T08:57:15;101528.41;;;5.74;100.00
31082;BME280;17737;52.586;13.284;2023-12-07T08:59:45;101531.16;;;6.07;100.00
31082;BME280;17737;52.586;13.284;2023-12-07T09:02:15;101528.22;;;5.88;100.00
31082;BME280;17737;52.586;13.284;2023-12-07T09:05:03;101542.91;;;5.83;100.00
31082;BME280;17737;52.586;13.284;2023-12-07T09:07:32;101533.69;;;5.87;100.00
31082;BME280;17737;52.586;13.284;2023-12-07T09:10:00;101542.94;;;6.05;100.00
31082;BME280;17737;52.586;13.284;2023-12-07T09:12:29;101546.47;;;6.05;100.00
31082;BME280;17737;52.586;13.284;2023-12-07T09:15:05;101537.59;;;6.05;100.00
31082;BME280;17737;52.586;13.284;2023-12-07T09:17:39;101543.56;;;6.08;100.00
31082;BME280;17737;52.586;13.284;2023-12-07T09:20:10;101544.06;;;6.14;100.00
31082;BME280;17737;52.586;13.284;2023-12-07T09:22:42;101544.41;;;5.87;100.00
31082;BME280;17737;52.586;13.284;2023-12-07T09:25:11;101553.63;;;5.83;100.00
31082;BME280;17737;52.586;13.284;2023-12-07T09:27:40;101544.63;;;5.84;100.00
31082;BME280;17737;52.586;13.284;2023-12-07T09:30:09;101553.75;;;5.92;100.00
31082;BME280;17737;52.586;13.284;2023-12-07T09:32:41;101552.78;;;6.04;100.00
31082;BME280;17737;52.586;13.284;2023-12-07T09:35:12;101557.19;;;6.28;100.00
31082;BME280;17737;52.586;13.284;2023-12-07T09:37:48;101549.03;;;6.07;100.00
31082;BME280;17737;52.586;13.284;2023-12-07T09:40:17;101562.50;;;5.94;100.00
31082;BME280;17737;52.586;13.284;2023-12-07T09:42:48;101563.84;;;5.65;100.00
31082;BME280;17737;52.586;13.284;2023-12-07T09:45:18;101562.91;;;5.77;100.00
31082;BME280;17737;52.586;13.284;2023-12-07T09:47:51;101556.38;;;5.81;100.00
31082;BME280;17737;52.586;13.284;2023-12-07T09:50:21;101562.91;;;5.77;100.00
31082;BME280;17737;52.586;13.284;2023-12-07T09:52:53;101556.88;;;5.75;100.00
31082;BME280;17737;52.586;13.284;2023-12-07T09:55:34;101566.41;;;5.90;100.00
31082;BME280;17737;52.586;13.284;2023-12-07T09:58:05;101573.72;;;6.22;100.00
31082;BME280;17737;52.586;13.284;2023-12-07T10:00:36;101570.81;;;6.14;100.00
31082;BME280;17737;52.586;13.284;2023-12-07T10:03:07;101568.34;;;5.88;100.00
31082;BME280;17737;52.586;13.284;2023-12-07T10:05:53;101561.31;;;6.21;100.00
31082;BME280;17737;52.586;13.284;2023-12-07T10:08:28;101562.78;;;6.36;100.00
31082;BME280;17737;52.586;13.284;2023-12-07T10:11:07;101567.88;;;6.17;100.00
31082;BME280;17737;52.586;13.284;2023-12-07T10:13:36;101558.66;;;6.43;100.00
31082;BME280;17737;52.586;13.284;2023-12-07T10:16:10;101556.34;;;6.38;100.00
31082;BME280;17737;52.586;13.284;2023-12-07T10:18:43;101549.41;;;6.36;100.00
31082;BME280;17737;52.586;13.284;2023-12-07T10:21:34;101549.03;;;6.40;100.00
31082;BME280;17737;52.586;13.284;2023-12-07T10:24:06;101548.91;;;6.08;100.00
31082;BME280;17737;52.586;13.284;2023-12-07T10:26:37;101551.09;;;6.03;100.00
31082;BME280;17737;52.586;13.284;2023-12-07T10:29:06;101555.38;;;6.28;100.00
31082;BME280;17737;52.586;13.284;2023-12-07T10:31:59;101544.53;;;6.19;100.00
31082;BME280;17737;52.586;13.284;2023-12-07T10:34:32;101558.16;;;6.27;100.00
31082;BME280;17737;52.586;13.284;2023-12-07T10:37:04;101546.47;;;6.17;100.00
31082;BME280;17737;52.586;13.284;2023-12-07T10:39:33;101554.28;;;6.64;100.00
31082;BME280;17737;52.586;13.284;2023-12-07T10:42:06;101555.88;;;6.33;100.00
31082;BME280;17737;52.586;13.284;2023-12-07T10:44:41;101555.97;;;6.43;100.00
31082;BME280;17737;52.586;13.284;2023-12-07T10:47:10;101552.06;;;6.14;100.00
31082;BME280;17737;52.586;13.284;2023-12-07T10:49:43;101557.44;;;6.36;100.00
31082;BME280;17737;52.586;13.284;2023-12-07T10:52:16;101550.63;;;6.54;100.00
31082;BME280;17737;52.586;13.284;2023-12-07T10:54:56;101552.81;;;6.27;100.00
31082;BME280;17737;52.586;13.284;2023-12-07T10:57:33;101550.59;;;6.09;100.00
31082;BME280;17737;52.586;13.284;2023-12-07T11:00:06;101554.16;;;6.21;100.00
31082;BME280;17737;52.586;13.284;2023-12-07T11:02:38;101555.34;;;5.95;100.00
31082;BME280;17737;52.586;13.284;2023-12-07T11:05:14;101547.22;;;6.19;100.00
31082;BME280;17737;52.586;13.284;2023-12-07T11:07:48;101552.81;;;6.27;100.00
31082;BME280;17737;52.586;13.284;2023-12-07T11:10:41;101547.44;;;6.49;100.00
31082;BME280;17737;52.586;13.284;2023-12-07T11:13:17;101547.09;;;6.20;100.00
31082;BME280;17737;52.586;13.284;2023-12-07T11:15:53;101537.47;;;6.06;100.00
31082;BME280;17737;52.586;13.284;2023-12-07T11:18:25;101537.97;;;6.00;100.00
31082;BME280;17737;52.586;13.284;2023-12-07T11:20:58;101525.06;;;6.39;100.00
31082;BME280;17737;52.586;13.284;2023-12-07T11:23:28;101533.97;;;6.06;100.00
31082;BME280;17737;52.586;13.284;2023-12-07T11:25:56;101533.34;;;6.14;100.00
31082;BME280;17737;52.586;13.284;2023-12-07T11:28:38;101528.97;;;6.35;100.00
31082;BME280;17737;52.586;13.284;2023-12-07T11:31:09;101528.22;;;6.22;100.00
31082;BME280;17737;52.586;13.284;2023-12-07T11:33:41;101531.88;;;5.98;100.00
31082;BME280;17737;52.586;13.284;2023-12-07T11:36:11;101525.06;;;6.17;100.00
31082;BME280;17737;52.586;13.284;2023-12-07T11:41:55;101533.97;;;6.17;100.00
31082;BME280;17737;52.586;13.284;2023-12-07T11:44:37;101526.78;;;6.18;100.00
31082;BME280;17737;52.586;13.284;2023-12-07T11:47:16;101528.84;;;6.25;100.00
31082;BME280;17737;52.586;13.284;2023-12-07T11:49:48;101531.03;;;6.20;100.00
31082;BME280;17737;52.586;13.284;2023-12-07T11:52:18;101528.63;;;6.28;100.00
31082;BME280;17737;52.586;13.284;2023-12-07T11:54:51;101535.56;;;6.20;100.00
31082;BME280;17737;52.586;13.284;2023-12-07T11:57:19;101538.22;;;6.20;100.00
31082;BME280;17737;52.586;13.284;2023-12-07T11:59:48;101519.50;;;6.42;100.00
31082;BME280;17737;52.586;13.284;2023-12-07T12:02:30;101529.41;;;6.73;100.00
31082;BME280;17737;52.586;13.284;2023-12-07T12:05:06;101523.81;;;6.76;100.00
31082;BME280;17737;52.586;13.284;2023-12-07T12:07:37;101518.59;;;6.63;100.00
31082;BME280;17737;52.586;13.284;2023-12-07T12:10:10;101512.59;;;6.93;100.00
31082;BME280;17737;52.586;13.284;2023-12-07T12:12:44;101509.63;;;6.96;100.00
31082;BME280;17737;52.586;13.284;2023-12-07T12:15:13;101514.06;;;6.75;100.00
31082;BME280;17737;52.586;13.284;2023-12-07T12:17:41;101518.34;;;6.66;100.00
31082;BME280;17737;52.586;13.284;2023-12-07T12:20:10;101519.28;;;6.87;100.00
31082;BME280;17737;52.586;13.284;2023-12-07T12:22:45;101523.41;;;6.91;100.00
31082;BME280;17737;52.586;13.284;2023-12-07T12:25:14;101516.91;;;6.40;100.00
31082;BME280;17737;52.586;13.284;2023-12-07T12:27:43;101526.53;;;6.43;100.00
31082;BME280;17737;52.586;13.284;2023-12-07T12:30:13;101522.66;;;6.25;100.00
31082;BME280;17737;52.586;13.284;2023-12-07T12:32:46;101532.16;;;6.18;100.00
31082;BME280;17737;52.586;13.284;2023-12-07T12:35:17;101525.69;;;6.20;100.00
31082;BME280;17737;52.586;13.284;2023-12-07T12:37:50;101526.34;;;5.78;100.00
31082;BME280;17737;52.586;13.284;2023-12-07T12:40:20;101532.03;;;6.19;100.00
31082;BME280;17737;52.586;13.284;2023-12-07T12:42:52;101522.66;;;6.47;100.00
31082;BME280;17737;52.586;13.284;2023-12-07T12:45:23;101520.41;;;6.74;100.00
31082;BME280;17737;52.586;13.284;2023-12-07T12:47:52;101509.59;;;6.64;100.00
31082;BME280;17737;52.586;13.284;2023-12-07T12:50:41;101512.78;;;6.36;100.00
31082;BME280;17737;52.586;13.284;2023-12-07T12:53:11;101520.59;;;6.17;100.00
31082;BME280;17737;52.586;13.284;2023-12-07T12:55:42;101519.50;;;6.42;100.00
31082;BME280;17737;52.586;13.284;2023-12-07T12:58:10;101513.03;;;6.55;100.00
31082;BME280;17737;52.586;13.284;2023-12-07T13:00:39;101517.03;;;6.39;100.00
31082;BME280;17737;52.586;13.284;2023-12-07T13:03:07;101520.97;;;6.13;100.00